Time;durP1;ratioP1;P1;durP2;ratioP2;P2;SDS_P1;SDS_P2;PMS_P1;PMS_P2;Temp;Humidity;BMP_temperature;BMP_pressure;BME280_temperature;BME280_humidity;BME280_pressure;Samples;Min_cycle;Max_cycle;Signal;HPM_P1;HPM_P2
2022/04/13 00:00:42;;;;;;;;;;;11.40;99.90;;;;;;5064903;28;19938;-76
2022/04/13 00:03:08;;;;;;;;;;;11.40;99.90;;;;;;5069017;28;19932;-76
2022/04/13 00:05:35;;;;;;;;;;;11.30;99.90;;;;;;5067678;28;20451;-76
2022/04/13 00:08:06;;;;;;;;;;;11.30;99.90;;;;;;5070010;28;20015;-76
2022/04/13 00:10:33;;;;;;;;;;;11.30;99.90;;;;;;5069696;28;20287;-76
2022/04/13 00:13:00;;;;;;;;;;;11.20;99.90;;;;;;5070313;28;20022;-76
2022/04/13 00:15:27;;;;;;;;;;;11.20;99.90;;;;;;5066043;28;19924;-76
2022/04/13 00:17:54;;;;;;;;;;;11.10;99.90;;;;;;5069809;28;20314;-76
2022/04/13 00:20:21;;;;;;;;;;;11.10;99.90;;;;;;5062033;28;19927;-76
2022/04/13 00:22:48;;;;;;;;;;;11.00;99.90;;;;;;5067312;28;19921;-76
2022/04/13 00:25:15;;;;;;;;;;;10.90;99.90;;;;;;5070118;28;19931;-76
2022/04/13 00:27:42;;;;;;;;;;;10.80;99.90;;;;;;5066888;28;19920;-75
2022/04/13 00:30:17;;;;;;;;;;;10.70;99.90;;;;;;5069369;28;19921;-76
2022/04/13 00:32:47;;;;;;;;;;;10.60;99.90;;;;;;5069986;28;19920;-76
2022/04/13 00:35:14;;;;;;;;;;;10.50;99.90;;;;;;5068452;28;19920;-76
2022/04/13 00:37:41;;;;;;;;;;;10.40;99.90;;;;;;5066441;28;19921;-76
2022/04/13 00:40:09;;;;;;;;;;;10.40;99.90;;;;;;5069741;28;19920;-76
2022/04/13 00:42:38;;;;;;;;;;;10.40;99.90;;;;;;5068898;28;20467;-76
2022/04/13 00:45:05;;;;;;;;;;;10.30;99.90;;;;;;5067072;28;19920;-76
2022/04/13 00:47:37;;;;;;;;;;;10.30;99.90;;;;;;5061177;28;20135;-76
2022/04/13 00:50:04;;;;;;;;;;;10.20;99.90;;;;;;5069718;28;19920;-76
2022/04/13 00:52:33;;;;;;;;;;;10.20;99.90;;;;;;5066604;28;19928;-76
2022/04/13 00:55:01;;;;;;;;;;;10.10;99.90;;;;;;5070190;28;20370;-76
2022/04/13 00:57:30;;;;;;;;;;;10.10;99.90;;;;;;5068571;28;19931;-76
2022/04/13 00:59:57;;;;;;;;;;;10.00;99.90;;;;;;5068267;28;19960;-76
2022/04/13 01:02:23;;;;;;;;;;;9.80;99.90;;;;;;5069051;28;19920;-76
2022/04/13 01:04:51;;;;;;;;;;;9.70;99.90;;;;;;5059465;28;20359;-76
2022/04/13 01:07:18;;;;;;;;;;;9.70;99.90;;;;;;5053196;28;19927;-76
2022/04/13 01:09:49;;;;;;;;;;;9.60;99.90;;;;;;5057017;28;19921;-76
2022/04/13 01:12:18;;;;;;;;;;;9.60;99.90;;;;;;5047780;28;20020;-76
2022/04/13 01:14:44;;;;;;;;;;;9.70;99.90;;;;;;5056841;28;19928;-76
2022/04/13 01:17:12;;;;;;;;;;;9.70;99.90;;;;;;5067701;28;19920;-76
2022/04/13 01:19:39;;;;;;;;;;;9.80;99.90;;;;;;5068914;28;19920;-76
2022/04/13 01:22:13;;;;;;;;;;;9.80;99.90;;;;;;5065071;28;19927;-76
2022/04/13 01:24:39;;;;;;;;;;;9.80;99.90;;;;;;5058557;28;20098;-76
2022/04/13 01:27:08;;;;;;;;;;;9.80;99.90;;;;;;5069094;28;19947;-76
2022/04/13 01:29:35;;;;;;;;;;;9.80;99.90;;;;;;5101280;28;20014;-76
2022/04/13 01:32:02;;;;;;;;;;;9.80;99.90;;;;;;5069335;28;19924;-76
2022/04/13 01:34:29;;;;;;;;;;;9.80;99.90;;;;;;5069483;28;19925;-76
2022/04/13 01:36:55;;;;;;;;;;;9.70;99.90;;;;;;5067452;28;19974;-76
2022/04/13 01:39:22;;;;;;;;;;;9.60;99.90;;;;;;5069357;28;20458;-76
2022/04/13 01:41:48;;;;;;;;;;;9.60;99.90;;;;;;5067014;28;19946;-76
2022/04/13 01:44:15;;;;;;;;;;;9.50;99.90;;;;;;5067338;28;19932;-76
2022/04/13 01:46:42;;;;;;;;;;;9.40;99.90;;;;;;5060178;28;19949;-76
2022/04/13 01:49:09;;;;;;;;;;;9.40;99.90;;;;;;5068977;28;19927;-76
2022/04/13 01:51:35;;;;;;;;;;;9.40;99.90;;;;;;5068969;28;19920;-76
2022/04/13 01:54:02;;;;;;;;;;;9.30;99.90;;;;;;5066995;28;19947;-76
2022/04/13 01:56:29;;;;;;;;;;;9.20;99.90;;;;;;5067138;28;19926;-77
2022/04/13 01:58:55;;;;;;;;;;;9.10;99.90;;;;;;5067930;28;19927;-76
2022/04/13 02:01:25;;;;;;;;;;;9.10;99.90;;;;;;5066545;28;20318;-76
2022/04/13 02:03:52;;;;;;;;;;;9.00;99.90;;;;;;5068747;28;19989;-76
2022/04/13 02:06:21;;;;;;;;;;;9.00;99.90;;;;;;5066559;28;19920;-76
2022/04/13 02:08:50;;;;;;;;;;;9.00;99.90;;;;;;5052480;28;19921;-76
2022/04/13 02:11:17;;;;;;;;;;;9.00;99.90;;;;;;5066512;28;19955;-75
2022/04/13 02:13:44;;;;;;;;;;;9.00;99.90;;;;;;5065842;28;20315;-76
2022/04/13 02:16:11;;;;;;;;;;;9.00;99.90;;;;;;5050695;28;19920;-76
2022/04/13 02:18:37;;;;;;;;;;;9.00;99.90;;;;;;5058920;28;19970;-76
2022/04/13 02:21:04;;;;;;;;;;;9.00;99.90;;;;;;5066418;28;20011;-76
2022/04/13 02:23:30;;;;;;;;;;;9.00;99.90;;;;;;5057339;28;19932;-76
2022/04/13 02:25:59;;;;;;;;;;;9.10;99.90;;;;;;5059964;28;19921;-76
2022/04/13 02:28:26;;;;;;;;;;;9.10;99.90;;;;;;5067246;28;20322;-76
2022/04/13 02:30:56;;;;;;;;;;;9.20;99.90;;;;;;5069687;28;19927;-76
2022/04/13 02:33:22;;;;;;;;;;;9.30;99.90;;;;;;5052173;28;20398;-76
2022/04/13 02:35:49;;;;;;;;;;;9.40;99.90;;;;;;5055421;28;19927;-76
2022/04/13 02:38:16;;;;;;;;;;;9.40;99.90;;;;;;5071239;28;19920;-76
2022/04/13 02:40:43;;;;;;;;;;;9.50;99.90;;;;;;5070672;28;19968;-76
2022/04/13 02:43:11;;;;;;;;;;;9.60;99.90;;;;;;5063828;28;20014;-76
2022/04/13 02:45:37;;;;;;;;;;;9.60;99.90;;;;;;5072152;28;19946;-76
2022/04/13 02:48:04;;;;;;;;;;;9.70;99.90;;;;;;5068949;28;19924;-76
2022/04/13 02:50:36;;;;;;;;;;;9.70;99.90;;;;;;5071427;28;19928;-75
2022/04/13 02:53:03;;;;;;;;;;;9.70;99.90;;;;;;5070175;28;19920;-76
2022/04/13 02:55:30;;;;;;;;;;;9.70;99.90;;;;;;5070786;28;19921;-76
2022/04/13 02:57:57;;;;;;;;;;;9.70;99.90;;;;;;5069900;28;19920;-76
2022/04/13 03:00:23;;;;;;;;;;;9.60;99.90;;;;;;5070366;28;19936;-76
2022/04/13 03:02:53;;;;;;;;;;;9.50;99.90;;;;;;5069088;28;19924;-76
2022/04/13 03:05:20;;;;;;;;;;;9.40;99.90;;;;;;5064568;28;20344;-76
2022/04/13 03:07:46;;;;;;;;;;;9.30;99.90;;;;;;5053970;28;19935;-76
2022/04/13 03:10:13;;;;;;;;;;;9.20;99.90;;;;;;5070890;28;19927;-76
2022/04/13 03:12:42;;;;;;;;;;;9.00;99.90;;;;;;5071056;28;19920;-76
2022/04/13 03:15:09;;;;;;;;;;;9.00;99.90;;;;;;5071031;28;20322;-76
2022/04/13 03:17:36;;;;;;;;;;;8.90;99.90;;;;;;5062326;28;20019;-76
2022/04/13 03:20:03;;;;;;;;;;;8.90;99.90;;;;;;5054354;28;19920;-76
2022/04/13 03:22:30;;;;;;;;;;;8.70;99.90;;;;;;5070882;28;20393;-76
2022/04/13 03:24:59;;;;;;;;;;;8.60;99.90;;;;;;5071044;28;20401;-77
2022/04/13 03:27:25;;;;;;;;;;;8.60;99.90;;;;;;5069023;28;20293;-76
2022/04/13 03:29:52;;;;;;;;;;;8.60;99.90;;;;;;5070095;28;19925;-76
2022/04/13 03:32:19;;;;;;;;;;;8.50;99.90;;;;;;5066392;28;19920;-76
2022/04/13 03:34:45;;;;;;;;;;;8.40;99.90;;;;;;5066870;28;19920;-76
2022/04/13 03:37:12;;;;;;;;;;;8.40;99.90;;;;;;5068941;28;19920;-76
2022/04/13 03:39:39;;;;;;;;;;;8.40;99.90;;;;;;5068911;28;19921;-76
2022/04/13 03:42:05;;;;;;;;;;;8.30;99.90;;;;;;5066481;28;19920;-76
2022/04/13 03:44:32;;;;;;;;;;;8.20;99.90;;;;;;5068252;28;19921;-76
2022/04/13 03:46:59;;;;;;;;;;;8.20;99.90;;;;;;5068691;28;19924;-76
2022/04/13 03:49:25;;;;;;;;;;;8.10;99.90;;;;;;5067528;28;19973;-76
2022/04/13 03:51:52;;;;;;;;;;;8.00;99.90;;;;;;5069729;28;19921;-76
2022/04/13 03:54:19;;;;;;;;;;;7.90;99.90;;;;;;5070191;28;20379;-74
2022/04/13 03:56:46;;;;;;;;;;;7.80;99.90;;;;;;5069863;28;19920;-76
2022/04/13 03:59:13;;;;;;;;;;;7.80;99.90;;;;;;5069468;28;19927;-76
2022/04/13 04:01:40;;;;;;;;;;;7.70;99.90;;;;;;5069777;28;19921;-74
2022/04/13 04:04:08;;;;;;;;;;;7.60;99.90;;;;;;5069552;28;19931;-76
2022/04/13 04:06:37;;;;;;;;;;;7.60;99.90;;;;;;5059969;28;19920;-74
2022/04/13 04:09:04;;;;;;;;;;;7.50;99.90;;;;;;5052030;28;19947;-74
2022/04/13 04:11:34;;;;;;;;;;;7.50;99.90;;;;;;5090075;27;19974;-74
2022/04/13 04:14:00;;;;;;;;;;;7.40;99.90;;;;;;5068622;28;20069;-74
2022/04/13 04:16:27;;;;;;;;;;;7.40;99.90;;;;;;5068629;28;19946;-74
2022/04/13 04:18:54;;;;;;;;;;;7.40;99.90;;;;;;5067217;28;19924;-76
2022/04/13 04:21:26;;;;;;;;;;;7.40;99.90;;;;;;5066303;28;19932;-75
2022/04/13 04:23:53;;;;;;;;;;;7.30;99.90;;;;;;5069399;28;19927;-74
2022/04/13 04:26:20;;;;;;;;;;;7.30;99.90;;;;;;5069470;28;19928;-74
2022/04/13 04:28:48;;;;;;;;;;;7.20;99.90;;;;;;5067034;28;19932;-75
2022/04/13 04:31:49;;;;;;;;;;;7.10;99.90;;;;;;5064824;28;19927;-74
2022/04/13 04:34:04;;;;;;;;;;;7.00;99.90;;;;;;5069387;28;19935;-74
2022/04/13 04:36:31;;;;;;;;;;;7.00;99.90;;;;;;5069830;28;19920;-74
2022/04/13 04:38:58;;;;;;;;;;;7.10;99.90;;;;;;5069211;28;19924;-74
2022/04/13 04:41:24;;;;;;;;;;;7.00;99.90;;;;;;5068145;28;19928;-74
2022/04/13 04:43:53;;;;;;;;;;;7.00;99.90;;;;;;5067915;28;19920;-74
2022/04/13 04:46:20;;;;;;;;;;;7.00;99.90;;;;;;5062968;28;19920;-74
2022/04/13 04:48:47;;;;;;;;;;;7.10;99.90;;;;;;5049190;28;19931;-74
2022/04/13 04:51:14;;;;;;;;;;;7.20;99.90;;;;;;5064570;28;19925;-74
2022/04/13 04:53:41;;;;;;;;;;;7.30;99.90;;;;;;5060857;28;19920;-74
2022/04/13 04:56:08;;;;;;;;;;;7.30;99.90;;;;;;5067552;28;19925;-75
2022/04/13 04:58:34;;;;;;;;;;;7.30;99.90;;;;;;5065247;28;20287;-74
2022/04/13 05:01:01;;;;;;;;;;;7.30;99.90;;;;;;5064439;28;20377;-74
2022/04/13 05:03:28;;;;;;;;;;;7.40;99.90;;;;;;5062860;28;19925;-75
2022/04/13 05:05:57;;;;;;;;;;;7.40;99.90;;;;;;5064121;28;19920;-76
2022/04/13 05:08:23;;;;;;;;;;;7.50;99.90;;;;;;5065917;28;19920;-76
2022/04/13 05:10:56;;;;;;;;;;;7.50;99.90;;;;;;5068318;28;19943;-75
2022/04/13 05:13:23;;;;;;;;;;;7.50;99.90;;;;;;5068174;28;19921;-76
2022/04/13 05:15:50;;;;;;;;;;;7.60;99.90;;;;;;5098288;28;19920;-76
2022/04/13 05:18:18;;;;;;;;;;;7.60;99.90;;;;;;5066567;28;20405;-75
2022/04/13 05:20:45;;;;;;;;;;;7.70;99.90;;;;;;5065111;28;19935;-75
2022/04/13 05:23:11;;;;;;;;;;;7.70;99.90;;;;;;5061165;28;19933;-75
2022/04/13 05:25:38;;;;;;;;;;;7.80;99.90;;;;;;5069148;28;19935;-75
2022/04/13 05:28:05;;;;;;;;;;;7.90;99.90;;;;;;5062764;28;19924;-75
2022/04/13 05:30:31;;;;;;;;;;;8.00;99.90;;;;;;5098767;28;19951;-75
2022/04/13 05:32:58;;;;;;;;;;;8.20;99.90;;;;;;5062368;28;19932;-75
2022/04/13 05:35:26;;;;;;;;;;;8.30;99.90;;;;;;5056878;28;20347;-75
2022/04/13 05:37:53;;;;;;;;;;;8.40;99.90;;;;;;5063362;28;19928;-75
2022/04/13 05:40:22;;;;;;;;;;;8.50;99.90;;;;;;5071136;28;20027;-75
2022/04/13 05:42:53;;;;;;;;;;;8.70;99.90;;;;;;5063693;28;19932;-74
2022/04/13 05:45:20;;;;;;;;;;;8.90;99.90;;;;;;5057347;28;20279;-75
2022/04/13 05:47:47;;;;;;;;;;;9.10;99.90;;;;;;5058365;28;19934;-75
2022/04/13 05:50:14;;;;;;;;;;;9.30;99.90;;;;;;5061739;28;19956;-76
2022/04/13 05:52:41;;;;;;;;;;;9.50;99.90;;;;;;5065048;28;19925;-76
2022/04/13 05:55:08;;;;;;;;;;;9.70;99.90;;;;;;5065346;28;19924;-76
2022/04/13 05:57:34;;;;;;;;;;;10.00;99.90;;;;;;5060998;28;20008;-76
2022/04/13 06:00:02;;;;;;;;;;;10.20;99.90;;;;;;5066453;28;19925;-76
2022/04/13 06:02:33;;;;;;;;;;;10.40;99.90;;;;;;5062638;28;19935;-76
2022/04/13 06:05:00;;;;;;;;;;;10.70;99.90;;;;;;5069687;28;19939;-76
2022/04/13 06:07:26;;;;;;;;;;;10.90;99.90;;;;;;5061056;28;19931;-76
2022/04/13 06:09:53;;;;;;;;;;;11.00;99.90;;;;;;5065661;28;19924;-76
2022/04/13 06:12:23;;;;;;;;;;;11.30;99.90;;;;;;5065549;28;19951;-76
2022/04/13 06:14:50;;;;;;;;;;;11.60;99.90;;;;;;5063652;28;19931;-76
2022/04/13 06:17:17;;;;;;;;;;;11.90;99.90;;;;;;5079142;28;19931;-76
2022/04/13 06:19:45;;;;;;;;;;;12.30;99.90;;;;;;5068767;28;19963;-74
2022/04/13 06:22:12;;;;;;;;;;;12.80;99.90;;;;;;5069544;28;19924;-74
2022/04/13 06:24:39;;;;;;;;;;;13.30;99.90;;;;;;5069447;28;19928;-74
2022/04/13 06:27:05;;;;;;;;;;;13.80;99.90;;;;;;5065486;28;19931;-74
2022/04/13 06:29:32;;;;;;;;;;;14.20;99.90;;;;;;5060417;28;19932;-74
2022/04/13 06:31:59;;;;;;;;;;;14.60;99.90;;;;;;5061309;28;19936;-74
2022/04/13 06:34:25;;;;;;;;;;;14.90;99.90;;;;;;5060318;28;19924;-74
2022/04/13 06:36:54;;;;;;;;;;;15.20;99.90;;;;;;5094634;28;19932;-74
2022/04/13 06:39:21;;;;;;;;;;;15.70;99.90;;;;;;5064256;28;19929;-74
2022/04/13 06:41:47;;;;;;;;;;;16.30;99.90;;;;;;5064490;28;25045;-75
2022/04/13 06:44:14;;;;;;;;;;;;;;;;;;5067309;28;20379;-75
2022/04/13 06:46:42;;;;;;;;;;;;;;;;;;5095224;28;19932;-76
2022/04/13 06:49:13;;;;;;;;;;;18.30;99.90;;;;;;5060875;28;20362;-76
2022/04/13 06:51:42;;;;;;;;;;;18.60;99.90;;;;;;5058460;28;20317;-76
2022/04/13 06:54:09;;;;;;;;;;;19.00;99.90;;;;;;5068930;28;19925;-76
2022/04/13 06:56:35;;;;;;;;;;;19.10;99.90;;;;;;5053677;28;19925;-76
2022/04/13 06:59:02;;;;;;;;;;;19.10;99.90;;;;;;5067774;28;19924;-76
2022/04/13 07:01:29;;;;;;;;;;;19.10;99.90;;;;;;5061653;28;19928;-76
2022/04/13 07:03:55;;;;;;;;;;;19.30;99.90;;;;;;5065149;28;19925;-76
2022/04/13 07:06:22;;;;;;;;;;;19.20;99.90;;;;;;5064649;28;19939;-76
2022/04/13 07:09:08;;;;;;;;;;;19.20;99.90;;;;;;5065374;28;20124;-76
2022/04/13 07:11:35;;;;;;;;;;;19.70;99.90;;;;;;5066121;28;19924;-76
2022/04/13 07:14:02;;;;;;;;;;;20.00;99.90;;;;;;5064455;28;20319;-76
2022/04/13 07:16:30;;;;;;;;;;;20.10;99.90;;;;;;5064378;28;19928;-73
2022/04/13 07:18:57;;;;;;;;;;;19.90;99.90;;;;;;5065790;28;19947;-74
2022/04/13 07:21:24;;;;;;;;;;;19.50;99.90;;;;;;5067060;28;19924;-75
2022/04/13 07:24:11;;;;;;;;;;;19.50;99.90;;;;;;5059979;28;19935;-75
2022/04/13 07:26:38;;;;;;;;;;;19.70;99.90;;;;;;5061763;28;20429;-75
2022/04/13 07:29:05;;;;;;;;;;;19.70;99.90;;;;;;5065985;28;19924;-75
2022/04/13 07:31:32;;;;;;;;;;;19.50;99.90;;;;;;5061225;28;20027;-75
2022/04/13 07:33:58;;;;;;;;;;;19.20;99.90;;;;;;5066054;28;20546;-75
2022/04/13 07:36:25;;;;;;;;;;;19.00;99.90;;;;;;5056762;28;19963;-75
2022/04/13 07:38:51;;;;;;;;;;;18.80;99.90;;;;;;5061958;28;19931;-75
2022/04/13 07:41:18;;;;;;;;;;;18.60;99.90;;;;;;5060365;28;19924;-75
2022/04/13 07:43:45;;;;;;;;;;;18.30;99.90;;;;;;5068509;28;19924;-75
2022/04/13 07:46:13;;;;;;;;;;;18.10;99.90;;;;;;5057934;28;19940;-75
2022/04/13 07:48:40;;;;;;;;;;;18.00;99.90;;;;;;5060980;28;19940;-75
2022/04/13 07:51:07;;;;;;;;;;;17.90;99.90;;;;;;5066044;28;20601;-75
2022/04/13 07:53:33;;;;;;;;;;;17.80;99.90;;;;;;5069374;28;19925;-75
2022/04/13 07:56:00;;;;;;;;;;;17.80;99.90;;;;;;5065607;28;20382;-76
2022/04/13 07:58:27;;;;;;;;;;;18.10;99.90;;;;;;5069255;28;19931;-75
2022/04/13 08:00:53;;;;;;;;;;;18.20;99.90;;;;;;5070354;28;20421;-75
2022/04/13 08:03:20;;;;;;;;;;;18.50;99.90;;;;;;5062800;28;19924;-75
2022/04/13 08:06:02;;;;;;;;;;;18.80;99.90;;;;;;5068689;28;20024;-77
2022/04/13 08:08:29;;;;;;;;;;;19.00;99.90;;;;;;5063245;28;19932;-76
2022/04/13 08:10:56;;;;;;;;;;;18.90;99.90;;;;;;5066689;28;19929;-75
2022/04/13 08:13:23;;;;;;;;;;;18.70;99.90;;;;;;5060338;28;19933;-75
2022/04/13 08:16:09;;;;;;;;;;;18.60;99.90;;;;;;5062450;28;20417;-75
2022/04/13 08:18:56;;;;;;;;;;;19.00;99.90;;;;;;5060446;28;19932;-75
2022/04/13 08:21:22;;;;;;;;;;;19.10;99.90;;;;;;5063336;28;20031;-75
2022/04/13 08:23:49;;;;;;;;;;;19.60;99.90;;;;;;5065835;28;19935;-75
2022/04/13 08:26:22;;;;;;;;;;;19.90;99.90;;;;;;5063068;28;19955;-76
2022/04/13 08:28:49;;;;;;;;;;;20.70;99.90;;;;;;5064564;28;19928;-76
2022/04/13 08:31:16;;;;;;;;;;;21.20;99.90;;;;;;5067116;28;20342;-76
2022/04/13 08:33:43;;;;;;;;;;;21.40;99.90;;;;;;5065123;28;19924;-76
2022/04/13 08:36:09;;;;;;;;;;;21.60;99.90;;;;;;5061270;28;19924;-76
2022/04/13 08:38:36;;;;;;;;;;;21.70;99.90;;;;;;5064026;28;19924;-75
2022/04/13 08:41:07;;;;;;;;;;;21.70;99.90;;;;;;5059601;28;19925;-75
2022/04/13 08:43:43;;;;;;;;;;;21.70;99.90;;;;;;5062867;28;20426;-76
2022/04/13 08:46:11;;;;;;;;;;;21.80;99.90;;;;;;5064891;28;20399;-76
2022/04/13 08:48:40;;;;;;;;;;;22.10;99.90;;;;;;5064856;28;19929;-76
2022/04/13 08:51:09;;;;;;;;;;;22.30;99.90;;;;;;5064281;28;19955;-76
2022/04/13 08:53:39;;;;;;;;;;;22.30;99.90;;;;;;5063814;28;19924;-76
2022/04/13 08:56:08;;;;;;;;;;;22.20;99.90;;;;;;5061624;28;19946;-76
2022/04/13 08:58:37;;;;;;;;;;;22.10;99.90;;;;;;5063637;28;19924;-76
2022/04/13 09:01:10;;;;;;;;;;;22.30;99.90;;;;;;5067586;28;19928;-76
2022/04/13 09:03:44;;;;;;;;;;;23.10;99.90;;;;;;5060619;28;19925;-76
2022/04/13 09:06:11;;;;;;;;;;;22.80;99.90;;;;;;5061918;28;19936;-76
2022/04/13 09:08:40;;;;;;;;;;;;;;;;;;5066360;28;19924;-77
2022/04/13 09:11:09;;;;;;;;;;;;;;;;;;5067785;28;20009;-77
2022/04/13 09:13:38;;;;;;;;;;;;;;;;;;5063482;28;19960;-76
2022/04/13 09:16:09;;;;;;;;;;;;;;;;;;5092390;28;19948;-76
2022/04/13 09:18:36;;;;;;;;;;;24.20;99.90;;;;;;5063218;28;19934;-77
2022/04/13 09:21:03;;;;;;;;;;;24.70;99.90;;;;;;5066067;28;20378;-76
2022/04/13 09:23:29;;;;;;;;;;;25.20;99.90;;;;;;5064038;28;19925;-76
2022/04/13 09:26:00;;;;;;;;;;;25.30;98.90;;;;;;5067136;28;20409;-77
2022/04/13 09:28:26;;;;;;;;;;;25.50;99.00;;;;;;5066300;28;19924;-77
2022/04/13 09:30:54;;;;;;;;;;;25.40;98.00;;;;;;5059626;28;20255;-76
2022/04/13 09:33:21;;;;;;;;;;;25.00;99.10;;;;;;5065571;28;19928;-77
2022/04/13 09:35:48;;;;;;;;;;;25.10;99.20;;;;;;5064143;28;19931;-76
2022/04/13 09:38:19;;;;;;;;;;;25.40;98.40;;;;;;5060873;28;19924;-75
2022/04/13 09:40:46;;;;;;;;;;;25.20;98.70;;;;;;5061226;28;19925;-76
2022/04/13 09:43:16;;;;;;;;;;;25.60;98.00;;;;;;5063949;28;20284;-76
2022/04/13 09:45:46;;;;;;;;;;;26.20;98.90;;;;;;5057313;28;20331;-76
2022/04/13 09:48:17;;;;;;;;;;;26.90;98.10;;;;;;5058536;28;20015;-76
2022/04/13 09:50:45;;;;;;;;;;;26.40;96.90;;;;;;5076095;28;19925;-76
2022/04/13 09:53:13;;;;;;;;;;;26.40;96.80;;;;;;5055595;28;19929;-77
2022/04/13 09:55:39;;;;;;;;;;;25.40;96.80;;;;;;5062932;28;19925;-76
2022/04/13 09:58:07;;;;;;;;;;;25.20;97.50;;;;;;5062479;28;19932;-75
2022/04/13 10:00:37;;;;;;;;;;;25.40;97.20;;;;;;5064674;28;19924;-76
2022/04/13 10:03:11;;;;;;;;;;;25.40;97.10;;;;;;5063991;28;19928;-76
2022/04/13 10:05:38;;;;;;;;;;;25.40;98.30;;;;;;5062073;28;20005;-76
2022/04/13 10:08:06;;;;;;;;;;;25.90;97.30;;;;;;5058703;28;19928;-76
2022/04/13 10:10:32;;;;;;;;;;;26.60;96.70;;;;;;5058105;28;19932;-76
2022/04/13 10:13:02;;;;;;;;;;;26.20;96.30;;;;;;5061662;28;19943;-76
2022/04/13 10:15:29;;;;;;;;;;;26.50;96.00;;;;;;5064877;28;20317;-76
2022/04/13 10:18:04;;;;;;;;;;;26.20;96.40;;;;;;5062252;28;19924;-76
2022/04/13 10:20:41;;;;;;;;;;;26.30;96.10;;;;;;5066451;28;19980;-77
2022/04/13 10:23:11;;;;;;;;;;;26.80;96.30;;;;;;5065370;28;19924;-75
2022/04/13 10:25:38;;;;;;;;;;;26.60;95.60;;;;;;5065902;28;19924;-75
2022/04/13 10:28:05;;;;;;;;;;;26.60;96.10;;;;;;5062405;28;20391;-76
2022/04/13 10:30:33;;;;;;;;;;;26.10;96.20;;;;;;5063797;28;20294;-76
2022/04/13 10:33:02;;;;;;;;;;;26.10;95.80;;;;;;5065322;28;20004;-76
2022/04/13 10:35:29;;;;;;;;;;;26.50;95.10;;;;;;5060783;28;20402;-75
2022/04/13 10:37:59;;;;;;;;;;;26.50;94.90;;;;;;5063012;28;19936;-75
2022/04/13 10:40:29;;;;;;;;;;;26.50;95.10;;;;;;5057925;28;20019;-75
2022/04/13 10:43:03;;;;;;;;;;;26.60;94.80;;;;;;5061876;28;19950;-75
2022/04/13 10:45:30;;;;;;;;;;;26.30;94.70;;;;;;5060015;28;19925;-76
2022/04/13 10:48:07;;;;;;;;;;;26.50;95.10;;;;;;5066852;28;19925;-77
2022/04/13 10:50:43;;;;;;;;;;;25.90;95.00;;;;;;5069835;28;19954;-76
2022/04/13 10:53:10;;;;;;;;;;;26.20;95.10;;;;;;5065949;28;19931;-76
2022/04/13 10:55:37;;;;;;;;;;;26.50;94.80;;;;;;5064289;28;19935;-76
2022/04/13 10:58:13;;;;;;;;;;;26.50;94.60;;;;;;5061410;28;19965;-76
2022/04/13 11:00:44;;;;;;;;;;;26.60;94.60;;;;;;5062828;28;19931;-76
2022/04/13 11:03:11;;;;;;;;;;;26.80;94.60;;;;;;5067880;28;20016;-75
2022/04/13 11:05:40;;;;;;;;;;;26.90;94.30;;;;;;5066799;28;19931;-77
2022/04/13 11:08:19;;;;;;;;;;;26.80;94.20;;;;;;5063883;28;19924;-76
2022/04/13 11:10:48;;;;;;;;;;;26.40;94.30;;;;;;5065626;28;19925;-77
2022/04/13 11:13:15;;;;;;;;;;;26.30;94.70;;;;;;5065987;28;19930;-76
2022/04/13 11:15:43;;;;;;;;;;;26.40;94.70;;;;;;5063559;28;19932;-77
2022/04/13 11:18:11;;;;;;;;;;;27.00;93.70;;;;;;5064752;28;20371;-74
2022/04/13 11:20:38;;;;;;;;;;;28.00;93.50;;;;;;5064768;28;19929;-75
2022/04/13 11:23:08;;;;;;;;;;;29.00;93.40;;;;;;5063650;28;20180;-75
2022/04/13 11:25:51;;;;;;;;;;;29.60;93.60;;;;;;5059725;28;20031;-75
2022/04/13 11:28:31;;;;;;;;;;;28.80;94.10;;;;;;5068835;28;19997;-76
2022/04/13 11:31:05;;;;;;;;;;;28.30;94.80;;;;;;5068137;28;20155;-75
2022/04/13 11:33:51;;;;;;;;;;;27.80;94.50;;;;;;5056646;28;19971;-75
2022/04/13 11:36:19;;;;;;;;;;;27.80;94.90;;;;;;5097376;28;19930;-75
2022/04/13 11:39:06;;;;;;;;;;;27.90;94.10;;;;;;5064269;28;19924;-75
2022/04/13 11:41:32;;;;;;;;;;;28.20;94.90;;;;;;5055798;28;20294;-76
2022/04/13 11:44:18;;;;;;;;;;;28.10;94.80;;;;;;5066577;28;19928;-76
2022/04/13 11:46:45;;;;;;;;;;;28.10;95.00;;;;;;5066299;28;20019;-76
2022/04/13 11:49:11;;;;;;;;;;;27.90;95.10;;;;;;5059107;28;19932;-75
2022/04/13 11:51:38;;;;;;;;;;;27.40;95.20;;;;;;5069833;28;19924;-75
2022/04/13 11:54:09;;;;;;;;;;;27.00;95.90;;;;;;5065485;28;20296;-76
2022/04/13 11:56:36;;;;;;;;;;;26.60;95.50;;;;;;5064189;28;19931;-76
2022/04/13 11:59:03;;;;;;;;;;;26.20;96.20;;;;;;5066742;28;19924;-76
2022/04/13 12:01:31;;;;;;;;;;;25.80;95.90;;;;;;5064547;28;19931;-76
2022/04/13 12:03:58;;;;;;;;;;;25.60;96.20;;;;;;5063368;28;19925;-76
2022/04/13 12:06:26;;;;;;;;;;;25.90;95.30;;;;;;5061616;28;19932;-76
2022/04/13 12:08:57;;;;;;;;;;;26.70;94.60;;;;;;5064766;28;19935;-76
2022/04/13 12:11:46;;;;;;;;;;;27.00;94.40;;;;;;5067023;28;19925;-76
2022/04/13 12:14:27;;;;;;;;;;;27.40;93.80;;;;;;5064172;28;20255;-76
2022/04/13 12:16:57;;;;;;;;;;;28.20;93.50;;;;;;5064401;28;19929;-75
2022/04/13 12:19:24;;;;;;;;;;;28.50;93.40;;;;;;5064224;28;20314;-75
2022/04/13 12:21:50;;;;;;;;;;;28.90;92.80;;;;;;5061854;28;19924;-76
2022/04/13 12:24:17;;;;;;;;;;;29.10;92.80;;;;;;5067453;28;20398;-77
2022/04/13 12:26:44;;;;;;;;;;;29.50;92.70;;;;;;5064802;28;20039;-77
2022/04/13 12:29:14;;;;;;;;;;;29.50;92.40;;;;;;5060697;28;19932;-75
2022/04/13 12:31:44;;;;;;;;;;;29.90;92.40;;;;;;5064779;28;20034;-76
2022/04/13 12:34:14;;;;;;;;;;;30.10;91.30;;;;;;5067295;28;19951;-75
2022/04/13 12:36:40;;;;;;;;;;;29.80;91.90;;;;;;5064458;28;19954;-75
2022/04/13 12:39:11;;;;;;;;;;;29.20;91.90;;;;;;5066029;28;19932;-75
2022/04/13 12:41:38;;;;;;;;;;;28.50;92.70;;;;;;5061340;28;20406;-76
2022/04/13 12:44:07;;;;;;;;;;;28.40;92.70;;;;;;5065436;28;19935;-75
2022/04/13 12:46:34;;;;;;;;;;;28.60;92.50;;;;;;5063503;28;20027;-75
2022/04/13 12:49:04;;;;;;;;;;;28.90;91.70;;;;;;5064838;28;19924;-75
2022/04/13 12:51:35;;;;;;;;;;;29.10;91.80;;;;;;5062215;28;19933;-76
2022/04/13 12:54:06;;;;;;;;;;;29.00;92.00;;;;;;5079371;28;19931;-74
2022/04/13 12:56:34;;;;;;;;;;;28.90;92.30;;;;;;5063637;28;19929;-76
2022/04/13 12:59:04;;;;;;;;;;;28.60;92.60;;;;;;5062528;28;19924;-75
2022/04/13 13:01:37;;;;;;;;;;;28.20;92.30;;;;;;5065293;28;20417;-75
2022/04/13 13:04:07;;;;;;;;;;;28.20;90.90;;;;;;5064114;28;20087;-76
2022/04/13 13:06:34;;;;;;;;;;;28.10;89.50;;;;;;5063525;28;19928;-75
2022/04/13 13:09:03;;;;;;;;;;;28.10;87.40;;;;;;5051105;28;20024;-76
2022/04/13 13:11:31;;;;;;;;;;;28.20;87.70;;;;;;5059238;28;19925;-76
2022/04/13 13:14:11;;;;;;;;;;;28.70;88.20;;;;;;5062847;28;20382;-76
2022/04/13 13:16:45;;;;;;;;;;;29.10;88.10;;;;;;5062365;28;19924;-76
2022/04/13 13:19:24;;;;;;;;;;;29.30;89.00;;;;;;5065268;28;19925;-76
2022/04/13 13:22:28;;;;;;;;;;;29.80;88.30;;;;;;5079861;28;19925;-76
2022/04/13 13:25:01;;;;;;;;;;;29.60;84.60;;;;;;5022460;28;20178;-76
2022/04/13 13:27:33;;;;;;;;;;;29.40;84.20;;;;;;5020134;28;19960;-76
2022/04/13 13:30:13;;;;;;;;;;;29.70;81.40;;;;;;5024365;28;20153;-76
2022/04/13 13:32:58;;;;;;;;;;;30.10;82.80;;;;;;5014840;28;19983;-76
2022/04/13 13:35:27;;;;;;;;;;;30.60;81.70;;;;;;5022500;28;20400;-75
2022/04/13 13:37:54;;;;;;;;;;;30.10;80.00;;;;;;5021774;28;19926;-75
2022/04/13 13:40:36;;;;;;;;;;;30.00;82.10;;;;;;5020871;28;20207;-75
2022/04/13 13:43:18;;;;;;;;;;;30.30;82.90;;;;;;5019037;28;19934;-76
2022/04/13 13:45:46;;;;;;;;;;;30.40;80.10;;;;;;5019152;28;19965;-76
2022/04/13 13:48:14;;;;;;;;;;;30.80;81.40;;;;;;5028434;28;20351;-75
2022/04/13 13:50:42;;;;;;;;;;;31.10;79.30;;;;;;5021452;28;19935;-75
2022/04/13 13:53:11;;;;;;;;;;;31.10;78.40;;;;;;5022477;28;20303;-75
2022/04/13 13:55:42;;;;;;;;;;;31.10;79.80;;;;;;5019794;28;19936;-75
2022/04/13 13:58:15;;;;;;;;;;;30.40;80.70;;;;;;5029768;28;19928;-76
2022/04/13 14:00:42;;;;;;;;;;;30.80;78.50;;;;;;5058147;28;19942;-76
2022/04/13 14:03:10;;;;;;;;;;;31.20;79.30;;;;;;5060439;28;19929;-76
2022/04/13 14:05:40;;;;;;;;;;;31.50;78.60;;;;;;5063011;28;20299;-75
2022/04/13 14:08:08;;;;;;;;;;;31.40;78.70;;;;;;5080135;28;19931;-75
2022/04/13 14:10:44;;;;;;;;;;;31.00;79.10;;;;;;5056146;28;19932;-76
2022/04/13 14:13:14;;;;;;;;;;;31.20;78.20;;;;;;5064664;28;20291;-76
2022/04/13 14:15:41;;;;;;;;;;;31.70;78.90;;;;;;5063121;28;19933;-76
2022/04/13 14:18:08;;;;;;;;;;;32.20;78.60;;;;;;5059733;28;19925;-76
2022/04/13 14:20:35;;;;;;;;;;;32.60;78.50;;;;;;5068871;28;19925;-76
2022/04/13 14:23:02;;;;;;;;;;;32.70;76.90;;;;;;5066167;28;19935;-76
2022/04/13 14:25:29;;;;;;;;;;;32.40;76.30;;;;;;5066503;28;19925;-75
2022/04/13 14:27:57;;;;;;;;;;;32.30;76.40;;;;;;5066244;28;19931;-75
2022/04/13 14:30:25;;;;;;;;;;;32.50;76.90;;;;;;5064427;28;19931;-74
2022/04/13 14:32:52;;;;;;;;;;;32.30;76.20;;;;;;5068689;28;20032;-75